createdAt,value
2018-06-14T00:00:26.703Z,15.98
2018-06-14T00:02:55.708Z,15.98
2018-06-14T00:05:24.764Z,16.70
2018-06-14T00:08:00.766Z,16.22
2018-06-14T00:10:30.671Z,16.11
2018-06-14T00:12:59.388Z,16.07
2018-06-14T00:15:28.064Z,16.04
2018-06-14T00:17:56.801Z,16.01
2018-06-14T00:20:25.452Z,16.00
2018-06-14T00:22:54.176Z,15.99
2018-06-14T00:25:22.928Z,15.97
2018-06-14T00:27:51.718Z,15.96
2018-06-14T00:30:20.800Z,15.94
2018-06-14T00:32:49.801Z,15.92
2018-06-14T00:35:18.905Z,15.92
2018-06-14T00:37:47.781Z,15.89
2018-06-14T00:40:16.978Z,15.89
2018-06-14T00:42:45.572Z,15.88
2018-06-14T00:47:42.147Z,15.86
2018-06-14T00:50:10.887Z,15.86
2018-06-14T00:52:39.622Z,15.86
2018-06-14T00:55:09.773Z,15.86
2018-06-14T00:57:38.466Z,15.86
2018-06-14T01:00:07.181Z,15.84
2018-06-14T01:02:36.189Z,15.84
2018-06-14T01:05:04.993Z,15.84
2018-06-14T01:07:33.769Z,15.84
2018-06-14T01:10:02.642Z,15.85
2018-06-14T01:12:31.513Z,15.84
2018-06-14T01:15:00.287Z,15.83
2018-06-14T01:17:29.205Z,16.52
2018-06-14T01:19:58.079Z,16.08
2018-06-14T01:22:27.426Z,16.00
2018-06-14T01:24:56.278Z,15.96
2018-06-14T01:27:25.196Z,15.93
2018-06-14T01:29:54.574Z,15.91
2018-06-14T01:32:23.392Z,15.90
2018-06-14T01:34:52.383Z,15.89
2018-06-14T01:37:21.326Z,15.88
2018-06-14T01:39:50.209Z,15.86
2018-06-14T01:42:19.104Z,15.84
2018-06-14T01:44:48.151Z,15.84
2018-06-14T01:47:25.763Z,16.55
2018-06-14T01:49:56.867Z,16.75
2018-06-14T01:52:28.257Z,16.19
2018-06-14T01:54:58.117Z,16.79
2018-06-14T01:57:27.998Z,16.91
2018-06-14T02:00:00.554Z,16.33
2018-06-14T02:02:34.258Z,16.16
2018-06-14T02:05:11.715Z,16.05
2018-06-14T02:07:42.358Z,16.71
2018-06-14T02:10:15.033Z,16.16
2018-06-14T02:12:51.865Z,16.04
2018-06-14T02:15:22.862Z,15.97
2018-06-14T02:17:57.443Z,16.62
2018-06-14T02:20:29.063Z,16.77
2018-06-14T02:23:14.728Z,16.22
2018-06-14T02:25:48.583Z,16.06
2018-06-14T02:28:20.937Z,15.97
2018-06-14T02:30:55.003Z,16.60
2018-06-14T02:33:24.982Z,16.08
2018-06-14T02:36:11.900Z,15.93
2018-06-14T02:38:40.527Z,15.84
2018-06-14T02:41:09.283Z,15.79
2018-06-14T02:43:38.085Z,15.75
2018-06-14T02:46:07.851Z,15.71
2018-06-14T02:48:36.618Z,15.67
2018-06-14T02:51:05.346Z,15.64
2018-06-14T02:53:34.197Z,15.59
2018-06-14T02:56:03.180Z,16.26
2018-06-14T02:58:31.925Z,15.78
2018-06-14T03:01:00.794Z,15.69
2018-06-14T03:03:29.499Z,15.66
2018-06-14T03:05:58.293Z,15.61
2018-06-14T03:08:27.320Z,15.58
2018-06-14T03:10:56.179Z,15.55
2018-06-14T03:13:25.032Z,15.53
2018-06-14T03:15:53.907Z,15.49
2018-06-14T03:18:22.592Z,15.47
2018-06-14T03:20:52.322Z,15.45
2018-06-14T03:23:21.177Z,15.41
2018-06-14T03:25:49.946Z,15.40
2018-06-14T03:28:19.068Z,15.38
2018-06-14T03:30:50.789Z,15.35
2018-06-14T03:33:19.540Z,16.04
2018-06-14T03:35:49.835Z,15.58
2018-06-14T03:38:18.978Z,16.19
2018-06-14T03:40:51.048Z,16.36
2018-06-14T03:43:20.252Z,16.48
2018-06-14T03:45:51.294Z,15.95
2018-06-14T03:48:20.425Z,16.55
2018-06-14T03:50:50.313Z,16.70
2018-06-14T03:53:20.202Z,16.82
2018-06-14T03:55:49.258Z,16.90
2018-06-14T03:58:18.638Z,16.30
2018-06-14T04:00:50.252Z,16.17
2018-06-14T04:03:25.745Z,16.10
2018-06-14T04:05:56.168Z,16.04
2018-06-14T04:08:25.725Z,16.80
2018-06-14T04:11:07.809Z,16.30
2018-06-14T04:13:38.187Z,16.17
2018-06-14T04:16:08.364Z,16.89
2018-06-14T04:18:38.858Z,16.32
2018-06-14T04:21:14.178Z,16.20
2018-06-14T04:26:34.204Z,16.90
2018-06-14T04:29:04.229Z,16.28
2018-06-14T04:31:35.528Z,16.14
2018-06-14T04:34:04.572Z,16.08
2018-06-14T04:36:33.723Z,16.03
2018-06-14T04:39:02.994Z,16.02
2018-06-14T04:41:32.072Z,16.00
2018-06-14T04:49:38.063Z,16.30
2018-06-14T04:52:07.061Z,16.42
2018-06-14T04:54:36.070Z,16.53
2018-06-14T04:57:04.864Z,16.65
2018-06-14T04:59:33.629Z,16.73
2018-06-14T05:02:02.469Z,16.81
2018-06-14T05:04:31.617Z,16.89
2018-06-14T05:07:00.361Z,16.93
2018-06-14T05:09:29.559Z,17.00
2018-06-14T05:11:58.316Z,17.11
2018-06-14T05:14:27.366Z,17.25
2018-06-14T05:16:56.119Z,17.34
2018-06-14T05:19:24.932Z,17.42
2018-06-14T05:21:53.780Z,17.49
2018-06-14T05:24:22.683Z,17.56
2018-06-14T05:26:51.616Z,17.60
2018-06-14T05:29:20.444Z,17.62
2018-06-14T05:31:49.781Z,17.65
2018-06-14T05:34:20.629Z,17.65
2018-06-14T05:36:54.786Z,17.68
2018-06-14T05:39:23.536Z,17.74
2018-06-14T05:41:52.272Z,17.76
2018-06-14T05:44:21.635Z,17.74
2018-06-14T05:46:50.728Z,17.73
2018-06-14T05:49:19.903Z,17.73
2018-06-14T05:51:48.721Z,17.66
2018-06-14T05:54:17.520Z,17.66
2018-06-14T05:56:49.603Z,18.48
2018-06-14T05:59:18.467Z,17.78
2018-06-14T06:01:47.359Z,17.73
2018-06-14T06:04:16.676Z,17.77
2018-06-14T06:06:46.751Z,17.83
2018-06-14T06:09:16.098Z,17.82
2018-06-14T06:11:44.837Z,17.91
2018-06-14T06:14:14.213Z,17.89
2018-06-14T06:16:43.448Z,18.83
2018-06-14T06:19:12.126Z,19.13
2018-06-14T06:21:41.623Z,18.66
2018-06-14T06:24:10.415Z,19.45
2018-06-14T06:26:39.316Z,18.94
2018-06-14T06:29:08.113Z,18.92
2018-06-14T06:31:36.821Z,19.04
2018-06-14T06:34:05.860Z,19.18
2018-06-14T06:36:35.066Z,19.24
2018-06-14T06:39:04.029Z,19.36
2018-06-14T06:41:32.891Z,19.54
2018-06-14T06:44:01.675Z,19.68
2018-06-14T06:46:30.382Z,19.76
2018-06-14T06:48:59.362Z,19.78
2018-06-14T06:51:29.457Z,19.87
2018-06-14T06:53:59.473Z,20.01
2018-06-14T06:56:36.974Z,20.15
2018-06-14T06:59:13.568Z,20.20
2018-06-14T07:01:42.245Z,20.28
2018-06-14T07:04:11.509Z,21.22
2018-06-14T07:06:42.684Z,20.71
2018-06-14T07:09:12.097Z,20.78
2018-06-14T07:11:40.857Z,20.90
2018-06-14T07:14:10.412Z,21.03
2018-06-14T07:16:43.201Z,21.08
2018-06-14T07:19:12.048Z,21.08
2018-06-14T07:21:41.151Z,21.11
2018-06-14T07:24:10.582Z,21.12
2018-06-14T07:26:39.276Z,21.21
2018-06-14T07:29:09.411Z,21.39
2018-06-14T07:31:38.229Z,21.57
2018-06-14T07:39:50.961Z,21.70
2018-06-14T07:42:19.851Z,21.77
2018-06-14T07:44:49.481Z,21.80
2018-06-14T07:47:22.302Z,21.86
2018-06-14T07:49:51.101Z,21.82
2018-06-14T07:52:23.435Z,21.75
2018-06-14T07:54:52.767Z,21.85
2018-06-14T07:57:23.429Z,22.18
2018-06-14T07:59:55.328Z,22.49
2018-06-14T08:02:24.379Z,22.69
2018-06-14T08:04:55.624Z,22.90
2018-06-14T08:07:25.289Z,24.11
2018-06-14T08:09:57.180Z,23.31
2018-06-14T08:12:40.545Z,23.31
2018-06-14T08:15:12.465Z,23.41
2018-06-14T08:17:43.333Z,23.61
2018-06-14T08:23:11.451Z,23.85
2018-06-14T08:25:41.011Z,23.97
2018-06-14T08:28:10.893Z,23.92
2018-06-14T08:30:50.156Z,23.53
2018-06-14T08:33:22.629Z,23.40
2018-06-14T08:35:57.606Z,25.13
2018-06-14T08:38:40.590Z,24.58
2018-06-14T08:41:09.839Z,24.72
2018-06-14T08:43:38.510Z,24.76
2018-06-14T08:46:08.106Z,25.14
2018-06-14T08:48:37.653Z,26.80
2018-06-14T08:51:06.700Z,26.90
2018-06-14T08:53:35.390Z,26.65
2018-06-14T08:56:04.092Z,25.21
2018-06-14T08:58:33.513Z,24.54
2018-06-14T09:01:02.237Z,24.07
2018-06-14T09:03:36.187Z,23.97
2018-06-14T09:06:02.139Z,23.89
2018-06-14T09:08:33.302Z,25.11
2018-06-14T09:11:02.122Z,24.60
2018-06-14T09:13:31.035Z,24.97
2018-06-14T09:15:59.780Z,25.31
2018-06-14T09:18:28.535Z,25.64
2018-06-14T09:20:57.229Z,25.93
2018-06-14T09:23:26.277Z,26.06
2018-06-14T09:25:54.931Z,26.15
2018-06-14T09:28:24.104Z,26.24
2018-06-14T09:30:53.364Z,26.44
2018-06-14T09:33:22.099Z,26.48
2018-06-14T09:35:50.858Z,26.66
2018-06-14T09:38:19.713Z,26.63
2018-06-14T09:40:48.453Z,28.26
2018-06-14T09:43:17.338Z,27.13
2018-06-14T09:45:46.120Z,26.94
2018-06-14T09:48:15.171Z,28.41
2018-06-14T09:50:44.044Z,27.57
2018-06-14T09:53:14.123Z,27.49
2018-06-14T09:55:42.957Z,27.50
2018-06-14T09:58:13.259Z,27.13
2018-06-14T10:00:42.036Z,26.55
2018-06-14T10:03:11.107Z,26.07
2018-06-14T10:05:39.869Z,27.14
2018-06-14T10:08:08.617Z,26.24
2018-06-14T10:10:37.692Z,26.42
2018-06-14T10:13:07.074Z,26.58
2018-06-14T10:15:36.006Z,26.39
2018-06-14T10:18:05.296Z,26.39
2018-06-14T10:20:33.901Z,26.59
2018-06-14T10:23:02.613Z,26.86
2018-06-14T10:25:31.381Z,27.21
2018-06-14T10:28:00.337Z,27.52
2018-06-14T10:30:29.232Z,27.73
2018-06-14T10:32:57.925Z,27.87
2018-06-14T10:35:26.574Z,27.88
2018-06-14T10:37:55.679Z,27.68
2018-06-14T10:40:24.343Z,27.02
2018-06-14T10:42:53.043Z,26.66
2018-06-14T10:45:21.725Z,27.98
2018-06-14T10:50:39.279Z,26.53
2018-06-14T10:53:08.043Z,26.64
2018-06-14T10:55:37.078Z,28.25
2018-06-14T10:58:05.754Z,27.65
2018-06-14T11:00:34.435Z,27.70
2018-06-14T11:03:03.116Z,29.01
2018-06-14T11:05:31.798Z,28.37
2018-06-14T11:08:00.465Z,28.30
2018-06-14T11:10:29.516Z,28.25
2018-06-14T11:12:58.656Z,28.06
2018-06-14T11:15:27.395Z,27.92
2018-06-14T11:17:56.026Z,27.80
2018-06-14T11:20:25.145Z,27.87
2018-06-14T11:22:53.676Z,28.02
2018-06-14T11:25:22.338Z,28.20
2018-06-14T11:27:50.970Z,27.94
2018-06-14T11:30:20.153Z,27.73
2018-06-14T11:32:49.006Z,27.81
2018-06-14T11:35:17.685Z,27.75
2018-06-14T11:37:46.332Z,27.83
2018-06-14T11:40:15.645Z,27.94
2018-06-14T11:42:44.277Z,27.98
2018-06-14T11:45:12.926Z,28.01
2018-06-14T11:47:41.581Z,27.96
2018-06-14T11:50:10.258Z,28.08
2018-06-14T11:52:41.006Z,28.14
2018-06-14T11:55:09.696Z,28.38
2018-06-14T11:57:38.325Z,28.55
2018-06-14T12:00:07.030Z,28.66
2018-06-14T12:02:35.680Z,30.05
2018-06-14T12:05:04.348Z,30.31
2018-06-14T12:07:32.973Z,29.44
2018-06-14T12:10:01.637Z,29.33
2018-06-14T12:12:30.254Z,29.02
2018-06-14T12:14:58.895Z,28.87
2018-06-14T12:17:27.552Z,28.79
2018-06-14T12:19:56.167Z,28.78
2018-06-14T12:22:24.840Z,28.51
2018-06-14T12:24:53.487Z,28.19
2018-06-14T12:27:22.178Z,28.17
2018-06-14T12:29:50.819Z,28.01
2018-06-14T12:32:19.474Z,27.99
2018-06-14T12:34:48.105Z,28.12
2018-06-14T12:37:16.805Z,28.30
2018-06-14T12:39:45.427Z,28.48
2018-06-14T12:42:14.111Z,29.87
2018-06-14T12:44:43.986Z,29.18
2018-06-14T12:47:12.668Z,30.24
2018-06-14T12:49:41.538Z,29.53
2018-06-14T12:52:10.194Z,29.40
2018-06-14T12:54:38.808Z,29.20
2018-06-14T12:57:08.359Z,29.15
2018-06-14T12:59:36.973Z,30.43
2018-06-14T13:02:13.298Z,29.67
2018-06-14T13:04:41.939Z,29.61
2018-06-14T13:07:10.602Z,29.58
2018-06-14T13:09:39.587Z,29.57
2018-06-14T13:12:08.245Z,29.68
2018-06-14T13:14:37.534Z,29.77
2018-06-14T13:17:06.382Z,29.53
2018-06-14T13:19:35.030Z,29.54
2018-06-14T13:22:03.678Z,30.72
2018-06-14T13:24:32.323Z,29.93
2018-06-14T13:27:01.011Z,29.84
2018-06-14T13:29:29.651Z,29.90
2018-06-14T13:34:45.866Z,30.24
2018-06-14T13:37:15.016Z,30.32
2018-06-14T13:39:43.646Z,30.45
2018-06-14T13:42:12.315Z,30.52
2018-06-14T13:44:40.952Z,30.62
2018-06-14T13:47:09.647Z,30.71
2018-06-14T13:49:38.352Z,30.76
2018-06-14T13:52:07.047Z,31.77
2018-06-14T13:54:36.014Z,31.06
2018-06-14T13:57:04.809Z,30.98
2018-06-14T13:59:41.141Z,31.00
2018-06-14T14:02:10.288Z,31.00
2018-06-14T14:04:39.617Z,30.95
2018-06-14T14:07:08.267Z,31.93
2018-06-14T14:09:37.181Z,32.06
2018-06-14T14:12:05.812Z,31.36
2018-06-14T14:14:34.515Z,31.24
2018-06-14T14:17:03.135Z,31.20
2018-06-14T14:19:31.891Z,32.14
2018-06-14T14:22:00.552Z,31.54
2018-06-14T14:24:29.180Z,31.55
2018-06-14T14:26:57.942Z,31.65
2018-06-14T14:29:35.192Z,31.65
2018-06-14T14:32:03.802Z,31.76
2018-06-14T14:34:32.473Z,31.70
2018-06-14T14:37:01.133Z,31.60
2018-06-14T14:39:30.180Z,31.58
2018-06-14T14:41:58.864Z,31.69
2018-06-14T14:44:27.893Z,31.87
2018-06-14T14:46:57.051Z,32.20
2018-06-14T14:49:29.567Z,32.57
2018-06-14T14:52:01.817Z,33.08
2018-06-14T14:54:31.620Z,33.53
2018-06-14T14:57:00.586Z,33.88
2018-06-14T14:59:31.052Z,35.37
2018-06-14T15:01:59.951Z,34.72
2018-06-14T15:04:30.031Z,34.81
2018-06-14T15:06:59.151Z,34.90
2018-06-14T15:09:28.221Z,34.97
2018-06-14T15:11:57.210Z,34.82
2018-06-14T15:14:25.754Z,36.07
2018-06-14T15:16:54.669Z,35.02
2018-06-14T15:19:23.510Z,34.97
2018-06-14T15:21:54.463Z,36.46
2018-06-14T15:24:23.069Z,36.64
2018-06-14T15:26:51.704Z,35.31
2018-06-14T15:29:20.350Z,35.16
2018-06-14T15:31:48.988Z,35.14
2018-06-14T15:34:17.679Z,35.29
2018-06-14T15:36:46.328Z,37.19
2018-06-14T15:39:14.967Z,37.60
2018-06-14T15:41:43.634Z,37.79
2018-06-14T15:44:12.254Z,36.66
2018-06-14T15:46:40.947Z,36.46
2018-06-14T15:49:09.638Z,36.24
2018-06-14T15:51:38.394Z,36.05
2018-06-14T15:54:07.598Z,37.40
2018-06-14T16:02:11.456Z,35.87
2018-06-14T16:04:40.120Z,35.82
2018-06-14T16:09:59.466Z,35.61
2018-06-14T16:12:28.221Z,35.66
2018-06-14T16:14:56.992Z,35.65
2018-06-14T16:17:25.733Z,35.63
2018-06-14T16:19:54.552Z,37.22
2018-06-14T16:22:23.303Z,35.93
2018-06-14T16:24:51.974Z,35.76
2018-06-14T16:27:20.696Z,35.63
2018-06-14T16:29:49.478Z,37.21
2018-06-14T16:32:18.215Z,35.93
2018-06-14T16:34:46.916Z,35.60
2018-06-14T16:37:15.959Z,35.52
2018-06-14T16:39:44.606Z,35.38
2018-06-14T16:42:13.506Z,35.40
2018-06-14T16:44:42.188Z,35.42
2018-06-14T16:47:10.929Z,35.61
2018-06-14T16:49:39.603Z,37.51
2018-06-14T16:52:08.370Z,36.14
2018-06-14T16:54:37.063Z,35.99
2018-06-14T16:57:05.848Z,36.06
2018-06-14T16:59:34.557Z,36.20
2018-06-14T17:02:04.936Z,38.16
2018-06-14T17:04:33.660Z,36.88
2018-06-14T17:07:02.513Z,36.77
2018-06-14T17:09:31.552Z,36.87
2018-06-14T17:12:03.280Z,38.99
2018-06-14T17:14:32.050Z,37.58
2018-06-14T17:17:00.800Z,37.45
2018-06-14T17:19:29.540Z,37.48
2018-06-14T17:21:58.360Z,37.42
2018-06-14T17:24:27.061Z,37.43
2018-06-14T17:26:55.784Z,37.49
2018-06-14T17:29:27.604Z,37.48
2018-06-14T17:31:56.451Z,37.52
2018-06-14T17:34:25.279Z,37.47
2018-06-14T17:36:54.054Z,37.22
2018-06-14T17:39:22.796Z,36.80
2018-06-14T17:41:55.271Z,36.33
2018-06-14T17:50:03.535Z,35.49
2018-06-14T17:52:32.260Z,35.38
2018-06-14T17:55:00.947Z,35.20
2018-06-14T17:57:29.704Z,34.68
2018-06-14T17:59:58.530Z,33.81
2018-06-14T18:02:27.200Z,32.92
2018-06-14T18:04:56.055Z,32.10
2018-06-14T18:07:26.376Z,31.33
2018-06-14T18:09:56.559Z,30.76
2018-06-14T18:12:25.411Z,30.30
2018-06-14T18:14:54.389Z,29.90
2018-06-14T18:17:23.214Z,29.33
2018-06-14T18:19:52.521Z,28.79
2018-06-14T18:22:21.162Z,28.31
2018-06-14T18:24:49.916Z,29.26
2018-06-14T18:27:18.984Z,27.83
2018-06-14T18:29:47.776Z,27.25
2018-06-14T18:32:16.545Z,26.79
2018-06-14T18:34:45.404Z,27.64
2018-06-14T18:37:14.073Z,26.47
2018-06-14T18:39:42.892Z,25.99
2018-06-14T18:42:11.587Z,25.62
2018-06-14T18:44:48.611Z,25.26
2018-06-14T18:47:19.627Z,24.89
2018-06-14T18:49:49.465Z,25.66
2018-06-14T18:52:19.804Z,24.68
2018-06-14T18:54:49.157Z,24.30
2018-06-14T18:57:18.609Z,23.99
2018-06-14T18:59:47.721Z,23.73
2018-06-14T19:02:18.259Z,24.50
2018-06-14T19:04:47.550Z,23.63
2018-06-14T19:07:27.105Z,23.30
2018-06-14T19:09:56.100Z,23.00
2018-06-14T19:12:28.701Z,22.72
2018-06-14T19:14:59.986Z,23.40
2018-06-14T19:17:31.121Z,22.56
2018-06-14T19:20:00.132Z,22.23
2018-06-14T19:22:29.149Z,22.00
2018-06-14T19:24:58.522Z,22.67
2018-06-14T19:27:27.324Z,21.90
2018-06-14T19:29:57.373Z,21.60
2018-06-14T19:32:28.985Z,21.38
2018-06-14T19:34:57.838Z,21.20
2018-06-14T19:40:18.572Z,21.16
2018-06-14T19:42:47.377Z,20.93
2018-06-14T19:45:16.209Z,20.79
2018-06-14T19:47:45.305Z,21.43
2018-06-14T19:50:14.848Z,20.76
2018-06-14T19:52:43.887Z,20.53
2018-06-14T19:55:15.184Z,20.35
2018-06-14T19:57:44.208Z,20.16
2018-06-14T20:00:13.613Z,20.02
2018-06-14T20:02:42.775Z,19.89
2018-06-14T20:05:11.607Z,19.77
2018-06-14T20:07:40.403Z,19.69
2018-06-14T20:10:18.093Z,19.61
2018-06-14T20:12:48.348Z,19.51
2018-06-14T20:15:34.029Z,19.43
2018-06-14T20:18:03.380Z,19.31
2018-06-14T20:20:36.394Z,19.22
2018-06-14T20:23:11.918Z,19.11
2018-06-14T20:25:41.385Z,18.98
2018-06-14T20:28:10.859Z,18.86
2018-06-14T20:30:39.932Z,19.53
2018-06-14T20:33:10.948Z,19.62
2018-06-14T20:35:40.595Z,18.94
2018-06-14T20:38:09.632Z,18.69
2018-06-14T20:40:39.219Z,18.51
2018-06-14T20:43:08.215Z,18.39
2018-06-14T20:45:37.474Z,18.28
2018-06-14T20:48:07.283Z,18.16
2018-06-14T20:50:36.528Z,18.07
2018-06-14T20:53:06.096Z,18.01
2018-06-14T20:55:40.139Z,17.92
2018-06-14T20:58:11.395Z,17.85
2018-06-14T21:00:41.379Z,17.79
2018-06-14T21:03:10.443Z,17.73
2018-06-14T21:05:39.340Z,17.67
2018-06-14T21:08:08.897Z,17.62
2018-06-14T21:24:16.293Z,17.31
2018-06-14T21:26:49.160Z,17.26
2018-06-14T21:29:17.970Z,17.20
2018-06-14T21:31:47.368Z,17.15
2018-06-14T21:34:16.557Z,17.10
2018-06-14T21:36:45.496Z,17.05
2018-06-14T21:39:14.587Z,17.02
2018-06-14T21:41:44.105Z,17.70
2018-06-14T21:44:13.088Z,17.20
2018-06-14T21:46:42.208Z,17.09
2018-06-14T21:49:11.120Z,17.03
2018-06-14T21:51:39.937Z,16.99
2018-06-14T21:54:08.863Z,16.98
2018-06-14T21:56:37.718Z,16.97
2018-06-14T21:59:06.642Z,16.99
2018-06-14T22:01:35.411Z,17.70
2018-06-14T22:04:04.409Z,17.90
2018-06-14T22:06:33.389Z,18.04
2018-06-14T22:09:03.339Z,17.48
2018-06-14T22:11:32.318Z,17.34
2018-06-14T22:14:01.515Z,17.28
2018-06-14T22:16:30.220Z,17.23
2018-06-14T22:18:59.064Z,17.91
2018-06-14T22:21:27.807Z,17.42
2018-06-14T22:23:56.545Z,17.99
2018-06-14T22:26:25.234Z,17.46
2018-06-14T22:28:53.925Z,17.33
2018-06-14T22:31:22.575Z,17.24
2018-06-14T22:34:28.577Z,17.18
2018-06-14T22:36:57.242Z,17.10
2018-06-14T22:39:25.973Z,17.07
2018-06-14T22:41:57.567Z,17.04
2018-06-14T22:44:28.432Z,17.03
2018-06-14T22:46:57.076Z,17.00
2018-06-14T22:49:26.160Z,16.98
2018-06-14T22:51:55.547Z,16.95
2018-06-14T22:54:26.512Z,17.60
2018-06-14T22:56:59.196Z,17.22
2018-06-14T22:59:33.444Z,17.27
2018-06-14T23:02:02.142Z,17.38
2018-06-14T23:04:30.940Z,18.08
2018-06-14T23:06:59.944Z,18.35
2018-06-14T23:09:28.699Z,17.97
2018-06-14T23:11:57.435Z,17.90
2018-06-14T23:14:26.324Z,17.87
2018-06-14T23:16:55.009Z,18.46
2018-06-14T23:19:23.824Z,18.64
2018-06-14T23:21:52.501Z,18.74
2018-06-14T23:24:21.177Z,18.82
2018-06-14T23:26:49.842Z,18.29
2018-06-14T23:29:18.585Z,18.13
2018-06-14T23:31:47.181Z,18.03
2018-06-14T23:34:15.857Z,17.96
2018-06-14T23:36:44.557Z,18.55
2018-06-14T23:39:13.302Z,18.07
2018-06-14T23:41:42.554Z,17.94
2018-06-14T23:44:13.324Z,17.86
2018-06-14T23:46:43.693Z,17.79
2018-06-14T23:49:12.656Z,17.75
2018-06-14T23:51:41.326Z,17.70
2018-06-14T23:54:11.214Z,17.67
2018-06-14T23:56:39.923Z,17.63
2018-06-14T23:59:08.596Z,17.59
